createdAt,value
2018-10-03T00:00:05.667Z,1.73
2018-10-03T00:02:34.135Z,3.07
2018-10-03T00:05:02.992Z,1.50
2018-10-03T00:07:31.424Z,2.27
2018-10-03T00:10:00.222Z,3.13
2018-10-03T00:12:28.647Z,2.00
2018-10-03T00:14:57.062Z,3.60
2018-10-03T00:17:25.766Z,3.27
2018-10-03T00:19:54.156Z,1.60
2018-10-03T00:22:22.551Z,2.23
2018-10-03T00:24:51.414Z,1.23
2018-10-03T00:27:19.786Z,2.43
2018-10-03T00:29:48.210Z,3.33
2018-10-03T00:32:17.168Z,3.17
2018-10-03T00:34:45.835Z,2.17
2018-10-03T00:37:14.671Z,5.17
2018-10-03T00:39:43.127Z,2.27
2018-10-03T00:42:11.554Z,2.63
2018-10-03T00:44:39.982Z,1.23
2018-10-03T00:47:08.751Z,3.00
2018-10-03T00:49:37.158Z,3.00
2018-10-03T00:52:05.634Z,1.00
2018-10-03T00:54:34.411Z,1.43
2018-10-03T00:57:02.799Z,1.20
2018-10-03T00:59:31.294Z,2.03
2018-10-03T01:01:59.831Z,1.97
2018-10-03T01:04:28.210Z,2.47
2018-10-03T01:06:56.634Z,1.27
2018-10-03T01:09:25.146Z,0.77
2018-10-03T01:11:53.538Z,1.80
2018-10-03T01:14:21.996Z,4.63
2018-10-03T01:16:50.830Z,3.53
2018-10-03T01:19:20.171Z,1.47
2018-10-03T01:21:48.587Z,1.37
2018-10-03T01:24:17.407Z,1.10
2018-10-03T01:26:45.808Z,1.23
2018-10-03T01:29:14.267Z,4.63
2018-10-03T01:31:42.739Z,3.50
2018-10-03T01:34:11.288Z,3.07
2018-10-03T01:36:39.796Z,2.47
2018-10-03T01:39:09.486Z,2.93
2018-10-03T01:41:38.102Z,3.00
2018-10-03T01:44:06.581Z,3.00
2018-10-03T01:46:35.046Z,3.33
2018-10-03T01:49:03.449Z,1.60
2018-10-03T01:51:32.146Z,1.80
2018-10-03T01:54:00.619Z,4.33
2018-10-03T01:56:29.130Z,1.47
2018-10-03T01:58:57.546Z,1.57
2018-10-03T02:01:26.014Z,1.57
2018-10-03T02:03:54.432Z,3.73
2018-10-03T02:06:22.851Z,1.73
2018-10-03T02:08:51.678Z,2.93
2018-10-03T02:11:20.399Z,2.70
2018-10-03T02:13:49.222Z,2.50
2018-10-03T02:16:18.566Z,1.93
2018-10-03T02:18:46.954Z,4.43
2018-10-03T02:21:15.341Z,4.27
2018-10-03T02:23:44.102Z,1.17
2018-10-03T02:26:12.494Z,4.13
2018-10-03T02:28:40.934Z,3.17
2018-10-03T02:31:09.358Z,2.03
2018-10-03T02:33:37.745Z,3.83
2018-10-03T02:36:06.355Z,3.37
2018-10-03T02:38:35.469Z,2.60
2018-10-03T02:41:03.935Z,1.73
2018-10-03T02:43:32.346Z,5.17
2018-10-03T02:46:00.955Z,2.73
2018-10-03T02:48:29.432Z,2.77
2018-10-03T02:50:57.862Z,4.73
2018-10-03T02:53:26.740Z,2.77
2018-10-03T02:55:55.119Z,8.83
2018-10-03T02:58:23.875Z,3.90
2018-10-03T03:00:52.351Z,3.63
2018-10-03T03:03:20.762Z,2.73
2018-10-03T03:05:49.630Z,2.87
2018-10-03T03:08:18.050Z,3.73
2018-10-03T03:10:46.433Z,3.90
2018-10-03T03:13:14.961Z,2.93
2018-10-03T03:15:44.192Z,3.80
2018-10-03T03:18:12.654Z,2.00
2018-10-03T03:20:41.431Z,4.70
2018-10-03T03:23:09.868Z,3.33
2018-10-03T03:25:38.271Z,2.43
2018-10-03T03:28:07.100Z,5.40
2018-10-03T03:30:35.505Z,2.33
2018-10-03T03:33:03.884Z,3.03
2018-10-03T03:35:32.394Z,3.50
2018-10-03T03:38:00.947Z,3.13
2018-10-03T03:40:32.626Z,2.57
2018-10-03T03:43:01.162Z,3.00
2018-10-03T03:45:29.587Z,2.60
2018-10-03T03:47:58.217Z,3.83
2018-10-03T03:50:27.156Z,3.57
2018-10-03T03:52:55.558Z,3.30
2018-10-03T03:55:23.966Z,4.37
2018-10-03T03:57:52.848Z,3.33
2018-10-03T04:00:21.315Z,5.73
2018-10-03T04:02:49.711Z,3.50
2018-10-03T04:05:18.236Z,2.57
2018-10-03T04:07:46.633Z,3.40
2018-10-03T04:10:15.061Z,1.80
2018-10-03T04:12:43.714Z,4.17
2018-10-03T04:15:12.191Z,2.07
2018-10-03T04:17:40.583Z,4.10
2018-10-03T04:20:09.483Z,4.30
2018-10-03T04:22:44.351Z,3.07
2018-10-03T04:25:12.994Z,2.47
2018-10-03T04:27:41.379Z,6.50
2018-10-03T04:30:09.894Z,2.60
2018-10-03T04:32:38.743Z,1.13
2018-10-03T04:35:07.707Z,2.30
2018-10-03T04:37:36.082Z,3.30
2018-10-03T04:40:05.164Z,4.73
2018-10-03T04:42:33.582Z,2.90
2018-10-03T04:45:01.971Z,3.47
2018-10-03T04:47:30.556Z,2.43
2018-10-03T04:49:58.955Z,2.27
2018-10-03T04:52:27.434Z,2.57
2018-10-03T04:54:56.303Z,2.73
2018-10-03T04:57:24.690Z,2.90
2018-10-03T04:59:53.095Z,4.27
2018-10-03T05:02:21.789Z,3.33
2018-10-03T05:04:50.606Z,2.70
2018-10-03T05:07:19.004Z,2.70
2018-10-03T05:09:47.598Z,3.37
2018-10-03T05:12:16.010Z,4.07
2018-10-03T05:14:44.403Z,3.63
2018-10-03T05:17:13.246Z,1.87
2018-10-03T05:19:42.767Z,3.83
2018-10-03T05:22:11.206Z,4.47
2018-10-03T05:24:39.722Z,3.17
2018-10-03T05:27:08.171Z,4.00
2018-10-03T05:29:36.683Z,3.00
2018-10-03T05:32:05.211Z,5.80
2018-10-03T05:34:33.655Z,2.30
2018-10-03T05:37:02.378Z,1.90
2018-10-03T05:39:31.154Z,4.73
2018-10-03T05:41:59.665Z,4.77
2018-10-03T05:44:28.062Z,4.90
2018-10-03T05:46:57.089Z,6.77
2018-10-03T05:49:25.491Z,11.30
2018-10-03T05:51:53.930Z,9.07
2018-10-03T05:54:22.752Z,7.70
2018-10-03T05:56:51.146Z,8.70
2018-10-03T05:59:19.534Z,7.07
2018-10-03T06:01:48.155Z,3.63
2018-10-03T06:04:16.542Z,2.20
2018-10-03T06:06:44.926Z,2.27
2018-10-03T06:09:14.731Z,1.37
2018-10-03T06:11:43.454Z,2.93
2018-10-03T06:14:12.242Z,6.57
2018-10-03T06:16:41.082Z,2.73
2018-10-03T06:19:09.479Z,4.80
2018-10-03T06:21:37.923Z,1.87
2018-10-03T06:24:06.842Z,1.87
2018-10-03T06:26:35.250Z,5.80
2018-10-03T06:29:03.723Z,8.97
2018-10-03T06:31:32.310Z,7.97
2018-10-03T06:34:00.716Z,4.43
2018-10-03T06:36:29.225Z,6.87
2018-10-03T06:38:57.956Z,4.50
2018-10-03T06:41:26.416Z,0.53
2018-10-03T06:43:54.926Z,5.23
2018-10-03T06:46:23.458Z,2.07
2018-10-03T06:48:51.912Z,2.27
2018-10-03T06:51:20.290Z,2.77
2018-10-03T06:53:48.798Z,2.67
2018-10-03T06:56:17.292Z,1.47
2018-10-03T06:58:45.706Z,2.13
2018-10-03T07:01:14.380Z,2.90
2018-10-03T07:03:42.795Z,1.60
2018-10-03T07:06:11.239Z,2.97
2018-10-03T07:08:40.235Z,2.70
2018-10-03T07:11:08.646Z,1.50
2018-10-03T07:13:37.053Z,2.53
2018-10-03T07:16:05.942Z,1.97
2018-10-03T07:18:34.365Z,3.50
2018-10-03T07:21:02.802Z,1.13
2018-10-03T07:23:31.678Z,1.67
2018-10-03T07:26:00.342Z,5.80
2018-10-03T07:28:29.094Z,3.20
2018-10-03T07:30:57.970Z,2.70
2018-10-03T07:33:26.390Z,2.97
2018-10-03T07:35:54.945Z,5.00
2018-10-03T07:38:23.467Z,4.00
2018-10-03T07:40:52.031Z,5.73
2018-10-03T07:43:20.419Z,4.57
2018-10-03T07:45:49.854Z,6.67
2018-10-03T07:48:18.270Z,4.60
2018-10-03T07:50:46.662Z,6.27
2018-10-03T07:53:15.222Z,7.57
2018-10-03T07:55:43.790Z,5.00
2018-10-03T07:58:12.165Z,5.97
2018-10-03T08:00:40.971Z,7.10
2018-10-03T08:03:11.764Z,8.10
2018-10-03T08:05:40.182Z,6.30
2018-10-03T08:08:08.949Z,4.83
2018-10-03T08:10:38.185Z,5.20
2018-10-03T08:13:06.666Z,3.77
2018-10-03T08:15:35.619Z,4.93
2018-10-03T08:18:04.235Z,5.83
2018-10-03T08:20:32.630Z,5.23
2018-10-03T08:23:01.271Z,4.23
2018-10-03T08:25:36.194Z,5.73
2018-10-03T08:28:05.210Z,4.57
2018-10-03T08:30:33.623Z,6.00
2018-10-03T08:33:02.145Z,5.83
2018-10-03T08:35:30.845Z,4.07
2018-10-03T08:37:59.256Z,6.30
2018-10-03T08:40:27.664Z,2.77
2018-10-03T08:42:56.859Z,4.50
2018-10-03T08:45:25.324Z,6.27
2018-10-03T08:47:54.041Z,4.77
2018-10-03T08:50:22.966Z,5.97
2018-10-03T08:52:51.379Z,4.33
2018-10-03T08:55:19.864Z,5.47
2018-10-03T08:57:48.741Z,3.83
2018-10-03T09:00:17.617Z,6.30
2018-10-03T09:02:46.107Z,5.70
2018-10-03T09:05:14.602Z,5.43
2018-10-03T09:07:43.261Z,5.12
2018-10-03T09:10:11.676Z,3.60
2018-10-03T09:12:40.606Z,2.37
2018-10-03T09:15:09.190Z,4.83
2018-10-03T09:17:37.674Z,4.33
2018-10-03T09:20:06.666Z,2.53
2018-10-03T09:22:35.099Z,4.17
2018-10-03T09:25:03.695Z,4.67
2018-10-03T09:27:32.367Z,6.73
2018-10-03T09:30:00.780Z,6.90
2018-10-03T09:32:29.285Z,11.90
2018-10-03T09:34:57.837Z,4.80
2018-10-03T09:37:26.339Z,5.27
2018-10-03T09:39:54.970Z,5.43
2018-10-03T09:42:23.958Z,7.77
2018-10-03T09:44:52.531Z,5.87
2018-10-03T09:47:20.934Z,5.27
2018-10-03T09:49:49.675Z,5.87
2018-10-03T09:52:18.082Z,4.80
2018-10-03T09:54:46.483Z,3.77
2018-10-03T09:57:15.040Z,3.60
2018-10-03T09:59:43.466Z,4.43
2018-10-03T10:02:11.927Z,4.67
2018-10-03T10:04:41.075Z,4.27
2018-10-03T10:07:09.467Z,5.12
2018-10-03T10:09:37.874Z,9.17
2018-10-03T10:12:06.642Z,18.87
2018-10-03T10:14:35.042Z,3.55
2018-10-03T10:17:03.498Z,3.45
2018-10-03T10:19:32.362Z,5.97
2018-10-03T10:22:00.780Z,5.92
2018-10-03T10:24:29.279Z,5.97
2018-10-03T10:26:58.037Z,3.75
2018-10-03T10:29:26.473Z,3.45
2018-10-03T10:31:54.945Z,3.83
2018-10-03T10:34:23.854Z,3.80
2018-10-03T10:36:52.335Z,4.93
2018-10-03T10:39:20.751Z,5.67
2018-10-03T10:41:49.594Z,3.07
2018-10-03T10:44:18.174Z,3.15
2018-10-03T10:46:47.853Z,3.62
2018-10-03T10:49:16.382Z,5.03
2018-10-03T10:51:44.971Z,4.90
2018-10-03T10:54:13.414Z,4.78
2018-10-03T10:56:42.532Z,3.75
2018-10-03T10:59:11.043Z,3.40
2018-10-03T11:01:39.440Z,4.33
2018-10-03T11:04:08.277Z,5.90
2018-10-03T11:06:36.721Z,3.95
2018-10-03T11:09:06.119Z,2.50
2018-10-03T11:11:34.746Z,4.65
2018-10-03T11:14:03.456Z,5.58
2018-10-03T11:16:31.892Z,5.37
2018-10-03T11:19:00.397Z,4.75
2018-10-03T11:21:28.922Z,4.47
2018-10-03T11:23:57.647Z,4.70
2018-10-03T11:26:25.934Z,2.52
2018-10-03T11:28:54.335Z,4.85
2018-10-03T11:31:22.750Z,4.85
2018-10-03T11:33:51.611Z,3.35
2018-10-03T11:36:20.007Z,2.45
2018-10-03T11:38:48.398Z,3.50
2018-10-03T11:41:17.031Z,4.10
2018-10-03T11:43:45.500Z,3.87
2018-10-03T11:46:14.110Z,2.70
2018-10-03T11:48:43.400Z,4.72
2018-10-03T11:51:11.852Z,2.95
2018-10-03T11:53:40.542Z,3.58
2018-10-03T11:56:09.173Z,5.65
2018-10-03T11:58:37.555Z,4.42
2018-10-03T12:01:05.974Z,3.92
2018-10-03T12:03:34.751Z,4.85
2018-10-03T12:06:03.170Z,5.08
2018-10-03T12:08:31.591Z,3.22
2018-10-03T12:11:00.131Z,1.60
2018-10-03T12:13:28.548Z,3.37
2018-10-03T12:15:56.977Z,2.60
2018-10-03T12:18:25.799Z,5.33
2018-10-03T12:20:54.199Z,6.03
2018-10-03T12:23:22.660Z,2.33
2018-10-03T12:25:51.314Z,3.03
2018-10-03T12:28:19.806Z,4.03
2018-10-03T12:30:48.215Z,3.00
2018-10-03T12:33:16.963Z,2.27
2018-10-03T12:35:45.402Z,3.73
2018-10-03T12:38:13.824Z,3.13
2018-10-03T12:40:42.816Z,1.90
2018-10-03T12:43:11.219Z,2.37
2018-10-03T12:45:39.623Z,3.58
2018-10-03T12:48:08.246Z,3.87
2018-10-03T12:50:36.930Z,2.77
2018-10-03T12:53:05.372Z,3.92
2018-10-03T12:55:34.015Z,5.20
2018-10-03T12:58:02.430Z,2.98
2018-10-03T13:00:31.943Z,1.65
2018-10-03T13:03:01.602Z,5.50
2018-10-03T13:05:30.363Z,4.53
2018-10-03T13:07:59.331Z,4.60
2018-10-03T13:10:28.075Z,3.53
2018-10-03T13:12:56.519Z,7.03
2018-10-03T13:15:24.930Z,1.93
2018-10-03T13:17:53.743Z,3.87
2018-10-03T13:20:22.324Z,2.60
2018-10-03T13:22:51.095Z,2.10
2018-10-03T13:25:19.684Z,2.17
2018-10-03T13:27:48.380Z,2.03
2018-10-03T13:30:16.872Z,6.63
2018-10-03T13:32:45.654Z,4.40
2018-10-03T13:35:14.075Z,2.20
2018-10-03T13:37:42.548Z,3.40
2018-10-03T13:40:12.734Z,4.00
2018-10-03T13:42:41.154Z,4.00
2018-10-03T13:45:09.575Z,8.40
2018-10-03T13:47:38.105Z,1.75
2018-10-03T13:50:06.578Z,1.67
2018-10-03T13:52:35.774Z,2.95
2018-10-03T13:55:04.609Z,4.03
2018-10-03T13:57:33.866Z,2.25
2018-10-03T14:00:02.259Z,3.35
2018-10-03T14:02:30.870Z,3.40
2018-10-03T14:04:59.296Z,3.67
2018-10-03T14:07:27.721Z,3.65
2018-10-03T14:09:56.355Z,4.67
2018-10-03T14:12:24.755Z,1.27
2018-10-03T14:14:53.179Z,2.30
2018-10-03T14:17:22.170Z,1.75
2018-10-03T14:19:50.604Z,2.37
2018-10-03T14:22:19.071Z,2.85
2018-10-03T14:24:47.915Z,1.27
2018-10-03T14:27:16.332Z,5.08
2018-10-03T14:29:44.815Z,2.52
2018-10-03T14:32:13.324Z,2.85
2018-10-03T14:34:41.798Z,3.35
2018-10-03T14:37:10.303Z,6.03
2018-10-03T14:39:39.059Z,4.05
2018-10-03T14:42:08.062Z,3.00
2018-10-03T14:44:36.469Z,2.10
2018-10-03T14:47:05.151Z,2.43
2018-10-03T14:49:33.560Z,3.37
2018-10-03T14:52:03.015Z,3.07
2018-10-03T14:54:31.943Z,2.63
2018-10-03T14:57:00.371Z,2.40
2018-10-03T14:59:29.054Z,2.53
2018-10-03T15:01:57.691Z,3.07
2018-10-03T15:04:26.237Z,2.07
2018-10-03T15:06:54.699Z,2.30
2018-10-03T15:09:23.650Z,2.87
2018-10-03T15:11:52.057Z,3.53
2018-10-03T15:14:20.450Z,1.87
2018-10-03T15:16:49.004Z,2.60
2018-10-03T15:19:17.446Z,3.13
2018-10-03T15:21:45.863Z,3.33
2018-10-03T15:24:14.440Z,4.87
2018-10-03T15:26:42.938Z,2.97
2018-10-03T15:29:11.350Z,2.40
2018-10-03T15:31:40.295Z,2.70
2018-10-03T15:34:08.688Z,3.77
2018-10-03T15:36:37.166Z,2.10
2018-10-03T15:39:06.834Z,1.77
2018-10-03T15:41:35.258Z,2.30
2018-10-03T15:44:03.866Z,4.23
2018-10-03T15:46:32.726Z,2.47
2018-10-03T15:49:01.152Z,3.90
2018-10-03T15:51:29.723Z,2.23
2018-10-03T15:53:58.734Z,2.60
2018-10-03T15:56:27.250Z,2.50
2018-10-03T15:58:55.672Z,2.67
2018-10-03T16:01:24.660Z,1.73
2018-10-03T16:03:53.075Z,3.03
2018-10-03T16:06:21.475Z,5.83
2018-10-03T16:08:51.662Z,1.40
2018-10-03T16:11:20.071Z,2.33
2018-10-03T16:13:48.489Z,3.70
2018-10-03T16:16:17.130Z,4.47
2018-10-03T16:18:45.833Z,3.97
2018-10-03T16:21:14.255Z,3.00
2018-10-03T16:23:42.885Z,2.70
2018-10-03T16:26:11.310Z,8.10
2018-10-03T16:28:39.696Z,6.43
2018-10-03T16:31:08.227Z,2.87
2018-10-03T16:33:36.636Z,2.10
2018-10-03T16:36:05.446Z,2.47
2018-10-03T16:38:34.464Z,3.37
2018-10-03T16:41:02.875Z,4.07
2018-10-03T16:43:31.283Z,3.90
2018-10-03T16:45:59.818Z,4.47
2018-10-03T16:48:28.305Z,5.07
2018-10-03T16:50:56.702Z,4.00
2018-10-03T16:53:26.586Z,5.27
2018-10-03T16:55:54.979Z,5.83
2018-10-03T16:58:23.878Z,7.27
2018-10-03T17:00:52.461Z,3.20
2018-10-03T17:03:21.047Z,5.43
2018-10-03T17:05:49.797Z,3.60
2018-10-03T17:08:18.502Z,8.43
2018-10-03T17:10:46.923Z,7.73
2018-10-03T17:13:15.332Z,1.47
2018-10-03T17:15:44.044Z,4.17
2018-10-03T17:18:12.442Z,5.20
2018-10-03T17:20:40.863Z,7.70
2018-10-03T17:23:09.430Z,6.37
2018-10-03T17:25:37.898Z,5.17
2018-10-03T17:28:06.303Z,5.60
2018-10-03T17:30:35.219Z,3.83
2018-10-03T17:33:03.603Z,3.33
2018-10-03T17:35:32.414Z,4.87
2018-10-03T17:38:00.913Z,3.30
2018-10-03T17:40:29.335Z,8.57
2018-10-03T17:42:57.818Z,4.53
2018-10-03T17:45:26.835Z,4.37
2018-10-03T17:47:55.234Z,3.07
2018-10-03T17:50:23.630Z,1.87
2018-10-03T17:52:52.410Z,4.20
2018-10-03T17:55:20.799Z,3.43
2018-10-03T17:57:49.743Z,7.07
2018-10-03T18:00:20.207Z,5.17
2018-10-03T18:02:48.730Z,7.07
2018-10-03T18:05:18.459Z,8.87
2018-10-03T18:07:47.085Z,5.30
2018-10-03T18:10:16.983Z,3.00
2018-10-03T18:12:47.293Z,4.33
2018-10-03T18:15:18.278Z,6.80
2018-10-03T18:17:46.910Z,6.00
2018-10-03T18:20:15.297Z,8.93
2018-10-03T18:22:43.856Z,3.93
2018-10-03T18:25:12.383Z,6.33
2018-10-03T18:27:40.849Z,7.17
2018-10-03T18:30:09.784Z,7.23
2018-10-03T18:32:38.222Z,8.83
2018-10-03T18:35:06.832Z,6.47
2018-10-03T18:37:35.296Z,10.77
2018-10-03T18:40:03.887Z,9.93
2018-10-03T18:42:32.284Z,12.07
2018-10-03T18:45:01.223Z,4.77
2018-10-03T18:47:29.955Z,9.33
2018-10-03T18:49:58.409Z,4.73
2018-10-03T18:52:27.198Z,4.57
2018-10-03T18:54:55.582Z,8.70
2018-10-03T18:57:24.066Z,6.03
2018-10-03T18:59:52.578Z,6.57
2018-10-03T19:02:23.203Z,4.73
2018-10-03T19:04:51.603Z,8.57
2018-10-03T19:07:20.674Z,5.30
2018-10-03T19:09:49.108Z,4.73
2018-10-03T19:12:17.983Z,8.27
2018-10-03T19:14:46.744Z,8.57
2018-10-03T19:17:15.194Z,5.90
2018-10-03T19:19:45.155Z,8.83
2018-10-03T19:22:15.196Z,7.47
2018-10-03T19:24:43.587Z,8.03
2018-10-03T19:27:12.010Z,7.40
2018-10-03T19:29:40.715Z,11.30
2018-10-03T19:32:09.130Z,6.93
2018-10-03T19:34:37.779Z,6.67
2018-10-03T19:37:06.463Z,9.87
2018-10-03T19:39:34.875Z,8.50
2018-10-03T19:42:03.560Z,11.03
2018-10-03T19:44:32.584Z,9.03
2018-10-03T19:47:00.983Z,17.60
2018-10-03T19:49:29.406Z,11.27
2018-10-03T19:51:58.391Z,14.43
2018-10-03T19:54:26.780Z,10.10
2018-10-03T19:56:55.217Z,10.33
2018-10-03T19:59:23.847Z,8.77
2018-10-03T20:01:52.266Z,10.47
2018-10-03T20:04:20.878Z,13.70
2018-10-03T20:06:50.026Z,9.47
2018-10-03T20:09:18.958Z,7.63
2018-10-03T20:11:47.479Z,6.07
2018-10-03T20:14:16.317Z,8.67
2018-10-03T20:16:45.406Z,11.33
2018-10-03T20:19:14.054Z,9.67
2018-10-03T20:21:43.097Z,5.43
2018-10-03T20:24:11.537Z,8.43
2018-10-03T20:26:40.085Z,10.07
2018-10-03T20:29:08.959Z,9.47
2018-10-03T20:31:37.382Z,6.57
2018-10-03T20:34:06.020Z,11.70
2018-10-03T20:36:35.849Z,18.13
2018-10-03T20:39:06.440Z,8.10
2018-10-03T20:41:34.965Z,7.47
2018-10-03T20:44:04.479Z,8.00
2018-10-03T20:46:34.671Z,9.53
2018-10-03T20:49:03.175Z,9.40
2018-10-03T20:51:31.683Z,8.63
2018-10-03T20:54:00.086Z,7.37
2018-10-03T20:56:28.526Z,8.87
2018-10-03T20:58:57.218Z,6.57
2018-10-03T21:01:25.616Z,8.53
2018-10-03T21:03:53.995Z,8.27
2018-10-03T21:06:28.946Z,6.57
2018-10-03T21:08:57.688Z,9.33
2018-10-03T21:11:26.506Z,8.13
2018-10-03T21:13:55.147Z,6.33
2018-10-03T21:16:23.547Z,9.70
2018-10-03T21:18:51.931Z,9.43
2018-10-03T21:21:20.891Z,10.73
2018-10-03T21:23:49.310Z,7.83
2018-10-03T21:26:17.733Z,9.73
2018-10-03T21:28:46.235Z,10.07
2018-10-03T21:31:14.642Z,18.50
2018-10-03T21:33:43.114Z,7.87
2018-10-03T21:36:12.065Z,8.77
2018-10-03T21:38:40.459Z,11.80
2018-10-03T21:41:08.849Z,8.40
2018-10-03T21:43:37.550Z,10.63
2018-10-03T21:46:05.980Z,8.83
2018-10-03T21:48:34.539Z,10.40
2018-10-03T21:51:03.045Z,11.87
2018-10-03T21:53:31.502Z,11.37
2018-10-03T21:56:00.166Z,9.70
2018-10-03T21:58:28.675Z,9.37
2018-10-03T22:00:57.127Z,8.37
2018-10-03T22:03:25.819Z,8.83
2018-10-03T22:05:54.357Z,9.00
2018-10-03T22:08:23.122Z,7.07
2018-10-03T22:10:51.748Z,7.53
2018-10-03T22:13:20.710Z,6.43
2018-10-03T22:15:49.366Z,5.50
2018-10-03T22:18:17.754Z,8.33
2018-10-03T22:20:46.482Z,11.37
2018-10-03T22:23:14.874Z,5.80
2018-10-03T22:25:43.282Z,5.17
2018-10-03T22:28:11.993Z,6.40
2018-10-03T22:30:40.404Z,5.40
2018-10-03T22:33:08.834Z,6.50
2018-10-03T22:35:37.766Z,8.80
2018-10-03T22:38:06.235Z,6.67
2018-10-03T22:40:34.834Z,5.57
2018-10-03T22:43:03.729Z,5.50
2018-10-03T22:45:32.134Z,4.70
2018-10-03T22:48:00.526Z,5.30
2018-10-03T22:50:29.022Z,6.50
2018-10-03T22:52:57.434Z,5.87
2018-10-03T22:55:25.814Z,4.43
2018-10-03T22:57:54.327Z,3.33
2018-10-03T23:00:22.714Z,5.50
2018-10-03T23:02:51.114Z,6.03
2018-10-03T23:05:19.818Z,5.43
2018-10-03T23:07:48.226Z,7.27
2018-10-03T23:10:16.634Z,7.00
2018-10-03T23:12:45.743Z,9.67
2018-10-03T23:15:14.632Z,8.17
2018-10-03T23:17:43.026Z,6.80
2018-10-03T23:20:11.646Z,8.20
2018-10-03T23:22:40.031Z,8.53
2018-10-03T23:25:08.482Z,6.40
2018-10-03T23:27:37.080Z,4.97
2018-10-03T23:30:05.867Z,5.80
2018-10-03T23:32:34.279Z,3.87
2018-10-03T23:35:03.150Z,6.00
2018-10-03T23:37:31.570Z,5.70
2018-10-03T23:40:00.048Z,3.93
2018-10-03T23:42:28.900Z,3.33
2018-10-03T23:44:57.363Z,3.23
2018-10-03T23:47:25.767Z,4.47
2018-10-03T23:49:54.560Z,2.67
2018-10-03T23:52:22.955Z,3.17
2018-10-03T23:54:51.338Z,3.10
2018-10-03T23:57:19.930Z,3.93
2018-10-03T23:59:48.292Z,6.23
